الصفحة الرئيسية
METAR-TAF:

METAR-TAF

مطار :

Nogales, أريزونا, الولايات المتحدة

دائرة عرض: 31-25-15N, خط طول: 110-50-45W, ارتفاع: 1198 متر

مراقبة الطقس الحالي

تاريخ ووقت الإصدار 46 دقيقة قبل الساعة 01:54UTC
ريح 12 عقدة من الجنوب/الجنوب الغربي تتزايد حتى 20 عقدة
درجة الحرارة 27°درجة مئوية
الرطوبة 16%
ضغط 1013 hPa
الرؤية: 16.1 كم
سماء صافية

METAR: KOLS 160154Z AUTO 20012G20KT 10SM CLR 27/M01 A2990 RMK AO2 SLP062 T02721011

زمن: 19:40 (02:40 UTC)

توقعات

تاريخ ووقت الإصدار 3ساعات و 20 دقيقة قبل الساعة 23:20UTC
التوقعات صالحة من16 الساعة 00 UTC إلى 16 الساعة 24 UTC
ريح 17 عقدة من الجنوب الغربي تتزايد حتى 28 عقدة
الرؤية: 10 كم
سماء صافية
من 16 الساعة 0300 UTC
ريح 10 عقدة من الجنوب/الجنوب الغربي
الرؤية: 10 كم
سماء صافية
من 16 الساعة 0600 UTC
ريح 4 عقدةمن اتجاهات متغيرة
الرؤية: 10 كم
سماء صافية
من 16 الساعة 1800 UTC
ريح 20 عقدة من الغرب/الجنوب الغربي تتزايد حتى 30 عقدة
الرؤية: 10 كم
سماء صافية

TAF: KOLS 152320Z 1600/1624 23017G28KT P6SM SKC FM160300 20010KT P6SM SKC FM160600 VRB04KT P6SM SKC FM161800 24020G30KT P6SM SKC

أرصاد الطقس والتوقعات من أكثر من 4000 مطار (تقارير الطقس للمطار METAR والتنبؤ بالطقس بالمطارTAF).

المحطات المتاحة هي النقط الصفراء والحمراء على الخريطة.

حرك المؤشر فوق النقطة لمعرفة اسم المحطة.

ثم انقر لمعرفة أرصاد وتوقعات الطقس.

لتغيير الخارطة: اضغط على الأزرار الخضراء مع رمز الصليب الأسود للتكبير. على الزر الأخضر مع شرطة للتصغير، أو على الأسهم الخضراء للخرائط المجاورة.


METAR-TAF: